Time;durP1;ratioP1;P1;durP2;ratioP2;P2;SDS_P1;SDS_P2;PMS_P1;PMS_P2;Temp;Humidity;BMP_temperature;BMP_pressure;BME280_temperature;BME280_humidity;BME280_pressure;Samples;Min_cycle;Max_cycle;Signal;HPM_P1;HPM_P2
2023/12/16 00:02:04;;;;;;;9.38;2.15;;;6.60;99.90;;;;;;5041323;28;20045;-69
2023/12/16 00:04:30;;;;;;;11.15;2.05;;;6.60;99.90;;;;;;5043267;28;20052;-69
2023/12/16 00:06:55;;;;;;;10.20;2.40;;;6.60;99.90;;;;;;5026313;28;20056;-69
2023/12/16 00:09:21;;;;;;;12.15;2.17;;;6.60;99.90;;;;;;5044464;28;20040;-66
2023/12/16 00:11:47;;;;;;;9.77;2.33;;;6.60;99.90;;;;;;5030683;28;20799;-67
2023/12/16 00:14:13;;;;;;;9.82;2.30;;;6.60;99.90;;;;;;5042979;28;20045;-67
2023/12/16 00:16:45;;;;;;;16.80;2.58;;;6.60;99.90;;;;;;5037221;28;20040;-67
2023/12/16 00:19:11;;;;;;;11.18;2.30;;;6.90;99.90;;;;;;5041707;28;20046;-68
2023/12/16 00:21:37;;;;;;;17.77;3.15;;;6.60;99.90;;;;;;5053598;28;20103;-68
2023/12/16 00:24:04;;;;;;;12.98;2.22;;;6.60;99.90;;;;;;5027627;28;20073;-68
2023/12/16 00:26:30;;;;;;;12.65;2.55;;;6.60;99.90;;;;;;5049964;28;20051;-68
2023/12/16 00:28:55;;;;;;;13.05;2.55;;;7.10;99.90;;;;;;5052284;28;20040;-68
2023/12/16 00:31:21;;;;;;;9.55;2.00;;;6.60;99.90;;;;;;5058494;28;20524;-67
2023/12/16 00:33:47;;;;;;;14.75;2.50;;;6.70;99.90;;;;;;5063884;28;20053;-68
2023/12/16 00:36:13;;;;;;;9.05;2.20;;;6.60;99.90;;;;;;5039540;28;20116;-68
2023/12/16 00:38:38;;;;;;;13.20;2.25;;;6.80;99.90;;;;;;5045476;28;20401;-68
2023/12/16 00:41:05;;;;;;;10.80;2.10;;;6.50;99.90;;;;;;5050118;28;20049;-68
2023/12/16 00:43:31;;;;;;;12.98;2.55;;;6.60;99.90;;;;;;5047006;28;20151;-68
2023/12/16 00:45:57;;;;;;;10.27;2.33;;;6.50;99.90;;;;;;5050732;28;20136;-68
2023/12/16 00:48:23;;;;;;;11.07;2.28;;;6.50;99.90;;;;;;5051127;28;20229;-70
2023/12/16 00:50:48;;;;;;;12.48;2.03;;;6.50;99.90;;;;;;5042103;28;20041;-68
2023/12/16 00:53:14;;;;;;;10.70;1.92;;;6.50;99.90;;;;;;5062796;28;20139;-67
2023/12/16 00:55:40;;;;;;;11.25;1.90;;;6.50;99.90;;;;;;5061060;28;20102;-68
2023/12/16 00:58:07;;;;;;;10.48;2.00;;;6.40;99.90;;;;;;5049113;28;20055;-68
2023/12/16 01:00:33;;;;;;;10.75;2.47;;;6.40;99.90;;;;;;5043728;28;20044;-67
2023/12/16 01:02:59;;;;;;;11.15;1.75;;;6.40;99.90;;;;;;5050219;28;20041;-68
2023/12/16 01:05:24;;;;;;;14.50;1.77;;;6.40;99.90;;;;;;5047814;28;20041;-69
2023/12/16 01:07:50;;;;;;;11.57;1.90;;;6.40;99.90;;;;;;5050587;28;20056;-69
2023/12/16 01:10:16;;;;;;;17.98;2.45;;;6.40;99.90;;;;;;5043004;28;20056;-69
2023/12/16 01:12:42;;;;;;;11.30;2.40;;;6.40;99.90;;;;;;5044680;28;20086;-69
2023/12/16 01:15:08;;;;;;;10.88;2.30;;;6.40;99.90;;;;;;5064912;28;20040;-68
2023/12/16 01:17:34;;;;;;;9.88;1.98;;;6.30;99.90;;;;;;5053243;28;20033;-69
2023/12/16 01:19:59;;;;;;;11.35;2.17;;;6.30;99.90;;;;;;5034991;28;20042;-69
2023/12/16 01:22:25;;;;;;;11.50;1.65;;;6.30;99.90;;;;;;5044707;28;20059;-68
2023/12/16 01:24:51;;;;;;;9.85;1.90;;;6.30;99.90;;;;;;5015682;28;20091;-66
2023/12/16 01:27:16;;;;;;;8.38;2.20;;;6.30;99.90;;;;;;5033780;28;20049;-68
2023/12/16 01:29:42;;;;;;;10.13;2.00;;;6.30;99.90;;;;;;5045352;28;20110;-68
2023/12/16 01:32:08;;;;;;;7.53;1.85;;;6.30;99.90;;;;;;5038701;28;20060;-67
2023/12/16 01:34:34;;;;;;;8.85;1.73;;;6.30;99.90;;;;;;5033745;28;20045;-68
2023/12/16 01:36:59;;;;;;;10.20;1.83;;;6.20;99.90;;;;;;5016469;28;20297;-67
2023/12/16 01:39:25;;;;;;;8.07;1.77;;;6.30;99.90;;;;;;5019359;28;20057;-68
2023/12/16 01:41:51;;;;;;;13.88;2.10;;;6.20;99.90;;;;;;5032435;28;20124;-67
2023/12/16 01:44:17;;;;;;;10.80;1.95;;;6.20;99.90;;;;;;5041422;28;20098;-67
2023/12/16 01:46:43;;;;;;;12.82;1.67;;;6.40;99.90;;;;;;5034368;28;20080;-67
2023/12/16 01:49:09;;;;;;;9.00;1.80;;;6.20;99.90;;;;;;5037173;28;20468;-67
2023/12/16 01:51:36;;;;;;;7.40;1.70;;;6.20;99.90;;;;;;5030677;28;20060;-68
2023/12/16 01:54:01;;;;;;;12.68;1.80;;;6.20;99.90;;;;;;5044061;28;20509;-68
2023/12/16 01:56:29;;;;;;;8.95;1.67;;;6.10;99.90;;;;;;5050308;28;20048;-68
2023/12/16 01:58:55;;;;;;;15.32;2.17;;;6.20;99.90;;;;;;5036598;28;20052;-68
2023/12/16 02:01:21;;;;;;;11.43;1.90;;;6.10;99.90;;;;;;5040367;28;20673;-68
2023/12/16 02:03:48;;;;;;;14.93;1.80;;;6.10;99.90;;;;;;5058763;28;20068;-67
2023/12/16 02:06:14;;;;;;;8.25;1.90;;;6.10;99.90;;;;;;5060560;28;20048;-67
2023/12/16 02:08:40;;;;;;;11.43;1.85;;;6.10;99.90;;;;;;5038295;28;20268;-67
2023/12/16 02:11:10;;;;;;;11.98;1.85;;;6.10;99.90;;;;;;5028432;28;20274;-67
2023/12/16 02:13:36;;;;;;;8.75;1.85;;;6.20;99.90;;;;;;5031525;28;20049;-67
2023/12/16 02:16:03;;;;;;;8.80;1.67;;;6.10;99.90;;;;;;5029945;28;20573;-68
2023/12/16 02:18:28;;;;;;;12.25;1.80;;;6.10;99.90;;;;;;5031601;28;20037;-67
2023/12/16 02:20:54;;;;;;;7.95;1.83;;;6.00;99.90;;;;;;5035413;28;20056;-67
2023/12/16 02:23:20;;;;;;;16.48;2.15;;;6.10;99.90;;;;;;5032318;28;20118;-67
2023/12/16 02:25:46;;;;;;;9.98;1.75;;;6.00;99.90;;;;;;5021303;28;20194;-68
2023/12/16 02:28:13;;;;;;;8.63;1.90;;;6.10;99.90;;;;;;5036936;28;20752;-68
2023/12/16 02:30:38;;;;;;;15.23;2.00;;;6.00;99.90;;;;;;5031955;28;20502;-68
2023/12/16 02:33:04;;;;;;;13.40;1.88;;;6.00;99.90;;;;;;5041296;28;20085;-68
2023/12/16 02:35:30;;;;;;;10.75;1.80;;;6.00;99.90;;;;;;5049058;28;20069;-68
2023/12/16 02:37:56;;;;;;;11.32;1.90;;;6.00;99.90;;;;;;5043977;28;20053;-67
2023/12/16 02:40:21;;;;;;;11.55;1.98;;;6.00;99.90;;;;;;5036586;28;20095;-67
2023/12/16 02:42:47;;;;;;;19.58;2.67;;;6.30;99.90;;;;;;5037675;28;20103;-67
2023/12/16 02:45:14;;;;;;;13.88;1.90;;;6.00;99.90;;;;;;5018895;28;20041;-67
2023/12/16 02:47:40;;;;;;;10.40;2.17;;;6.00;99.90;;;;;;5022303;28;20056;-67
2023/12/16 02:50:07;;;;;;;14.02;1.95;;;6.00;99.90;;;;;;5043089;28;20041;-67
2023/12/16 02:52:33;;;;;;;7.68;1.40;;;6.00;99.90;;;;;;5041423;28;20045;-67
2023/12/16 02:54:58;;;;;;;15.30;2.10;;;5.90;99.90;;;;;;5020505;28;20043;-67
2023/12/16 02:57:24;;;;;;;8.95;1.58;;;6.00;99.90;;;;;;5014128;28;20136;-66
2023/12/16 02:59:53;;;;;;;12.48;2.13;;;6.00;99.90;;;;;;5029046;28;20417;-66
2023/12/16 03:02:19;;;;;;;15.75;2.15;;;6.20;99.90;;;;;;5039855;28;20140;-67
2023/12/16 03:04:44;;;;;;;12.02;2.20;;;5.90;99.90;;;;;;5046070;28;20052;-67
2023/12/16 03:07:10;;;;;;;15.27;2.85;;;6.00;99.90;;;;;;5063020;28;20619;-67
2023/12/16 03:09:36;;;;;;;20.92;2.58;;;5.90;99.90;;;;;;5041393;28;20056;-70
2023/12/16 03:12:04;;;;;;;13.48;2.47;;;5.90;99.90;;;;;;5048706;28;20740;-67
2023/12/16 03:14:29;;;;;;;15.20;2.75;;;5.90;99.90;;;;;;5046207;28;20048;-67
2023/12/16 03:16:55;;;;;;;16.13;1.95;;;5.90;99.90;;;;;;5038359;28;20109;-67
2023/12/16 03:19:21;;;;;;;17.42;2.78;;;5.90;99.90;;;;;;5041911;28;20036;-68
2023/12/16 03:21:47;;;;;;;21.52;3.00;;;5.90;99.90;;;;;;5038446;28;20040;-68
2023/12/16 03:24:12;;;;;;;13.15;2.22;;;5.90;99.90;;;;;;5038131;28;20052;-67
2023/12/16 03:26:38;;;;;;;13.38;2.42;;;5.90;99.90;;;;;;5044321;28;20052;-67
2023/12/16 03:29:04;;;;;;;17.15;2.53;;;6.50;99.90;;;;;;5044246;28;20059;-68
2023/12/16 03:31:29;;;;;;;21.38;2.83;;;5.90;99.90;;;;;;5042468;28;20063;-67
2023/12/16 03:33:55;;;;;;;17.60;2.20;;;6.00;99.90;;;;;;5054061;28;20049;-68
2023/12/16 03:36:21;;;;;;;14.48;1.98;;;5.90;99.90;;;;;;5039631;28;20044;-70
2023/12/16 03:38:47;;;;;;;15.18;2.33;;;5.90;99.90;;;;;;5041183;28;20071;-68
2023/12/16 03:41:12;;;;;;;14.98;2.33;;;5.90;99.90;;;;;;5037965;28;20557;-67
2023/12/16 03:43:38;;;;;;;15.65;2.30;;;5.90;99.90;;;;;;5048146;28;20049;-68
2023/12/16 03:46:04;;;;;;;16.95;2.33;;;5.90;99.90;;;;;;5044153;28;20128;-67
2023/12/16 03:48:30;;;;;;;12.82;2.40;;;5.90;99.90;;;;;;5041737;28;20394;-67
2023/12/16 03:50:56;;;;;;;11.60;2.50;;;5.80;99.90;;;;;;5048481;28;20055;-67
2023/12/16 03:53:22;;;;;;;13.57;2.22;;;5.80;99.90;;;;;;5044596;28;20044;-67
2023/12/16 03:55:47;;;;;;;13.88;3.10;;;5.80;99.90;;;;;;5053985;28;20044;-67
2023/12/16 03:58:13;;;;;;;12.38;2.72;;;5.80;99.90;;;;;;5057627;28;20040;-68
2023/12/16 04:00:39;;;;;;;17.75;2.30;;;5.80;99.90;;;;;;5050368;28;20124;-67
2023/12/16 04:03:04;;;;;;;15.55;2.10;;;5.80;99.90;;;;;;5061530;28;20033;-68
2023/12/16 04:05:31;;;;;;;13.43;2.13;;;5.80;99.90;;;;;;5050057;28;20147;-68
2023/12/16 04:07:56;;;;;;;13.88;2.40;;;5.80;99.90;;;;;;5016612;28;20044;-68
2023/12/16 04:10:22;;;;;;;13.73;2.30;;;5.80;99.90;;;;;;5021523;28;20749;-67
2023/12/16 04:12:48;;;;;;;15.38;2.78;;;5.80;99.90;;;;;;5039828;28;20099;-67
2023/12/16 04:15:14;;;;;;;19.30;3.03;;;5.80;99.90;;;;;;5030130;28;20588;-67
2023/12/16 04:17:39;;;;;;;20.73;2.13;;;5.80;99.90;;;;;;5021832;28;20049;-67
2023/12/16 04:20:07;;;;;;;14.05;2.53;;;5.80;99.90;;;;;;5046963;28;20048;-69
2023/12/16 04:22:32;;;;;;;14.35;2.50;;;5.80;99.90;;;;;;5053958;28;20037;-67
2023/12/16 04:24:58;;;;;;;19.15;3.05;;;5.80;99.90;;;;;;5049739;28;22685;-67
2023/12/16 04:27:26;;;;;;;17.45;3.00;;;6.00;99.90;;;;;;5047354;28;20041;-68
2023/12/16 04:29:51;;;;;;;14.30;2.60;;;5.80;99.90;;;;;;5053860;28;20131;-67
2023/12/16 04:32:18;;;;;;;20.38;2.95;;;5.80;99.90;;;;;;5055346;28;20049;-68
2023/12/16 04:34:43;;;;;;;20.92;2.83;;;6.30;99.90;;;;;;5049012;28;20053;-68
2023/12/16 04:37:10;;;;;;;16.38;2.63;;;5.80;99.90;;;;;;5050510;28;20497;-68
2023/12/16 04:39:36;;;;;;;9.23;2.05;;;5.80;99.90;;;;;;5047626;28;20041;-67
2023/12/16 04:42:02;;;;;;;14.68;2.78;;;5.80;99.90;;;;;;5037868;28;20041;-67
2023/12/16 04:44:28;;;;;;;13.23;2.67;;;5.80;99.90;;;;;;5052313;28;20036;-67
2023/12/16 04:46:53;;;;;;;11.60;2.03;;;5.70;99.90;;;;;;5047118;28;20045;-67
2023/12/16 04:49:19;;;;;;;15.02;2.25;;;5.70;99.90;;;;;;5057189;28;20041;-69
2023/12/16 04:51:45;;;;;;;14.80;2.17;;;5.70;99.90;;;;;;5060566;28;20124;-67
2023/12/16 04:54:11;;;;;;;19.08;2.72;;;5.70;99.90;;;;;;5058205;28;20048;-67
2023/12/16 04:56:37;;;;;;;18.10;2.55;;;5.70;99.90;;;;;;5043104;28;20040;-67
2023/12/16 04:59:03;;;;;;;20.52;2.53;;;5.70;99.90;;;;;;5039940;28;20036;-66
2023/12/16 05:01:29;;;;;;;18.85;3.22;;;5.70;99.90;;;;;;5034089;28;20139;-67
2023/12/16 05:03:55;;;;;;;19.42;3.47;;;5.70;99.90;;;;;;5039135;28;20045;-68
2023/12/16 05:06:21;;;;;;;16.77;3.25;;;5.70;99.90;;;;;;5042619;28;20488;-67
2023/12/16 05:08:47;;;;;;;19.27;2.80;;;5.70;99.90;;;;;;5046295;28;20090;-67
2023/12/16 05:11:14;;;;;;;17.00;3.10;;;5.70;99.90;;;;;;5037999;28;20587;-68
2023/12/16 05:13:40;;;;;;;15.52;2.75;;;5.70;99.90;;;;;;5040242;28;20061;-67
2023/12/16 05:16:07;;;;;;;20.35;2.92;;;5.70;99.90;;;;;;5060821;28;20033;-67
2023/12/16 05:18:32;;;;;;;21.08;2.88;;;5.70;99.90;;;;;;5031903;28;20055;-67
2023/12/16 05:20:58;;;;;;;13.82;2.92;;;5.70;99.90;;;;;;5032913;28;20660;-67
2023/12/16 05:23:24;;;;;;;16.38;3.17;;;5.70;99.90;;;;;;5050897;28;20417;-67
2023/12/16 05:25:50;;;;;;;20.67;4.00;;;5.80;99.90;;;;;;5042804;28;20417;-67
2023/12/16 05:28:15;;;;;;;23.38;3.28;;;5.70;99.90;;;;;;5056978;28;20045;-67
2023/12/16 05:30:41;;;;;;;23.02;3.10;;;5.80;99.90;;;;;;5039515;28;20135;-69
2023/12/16 05:33:07;;;;;;;19.92;3.10;;;5.80;99.90;;;;;;5049452;28;20057;-67
2023/12/16 05:35:32;;;;;;;21.45;4.10;;;5.80;99.90;;;;;;5046767;28;20506;-67
2023/12/16 05:37:58;;;;;;;26.83;3.70;;;5.80;99.90;;;;;;5042946;28;20426;-67
2023/12/16 05:40:24;;;;;;;17.10;3.90;;;6.20;99.90;;;;;;5047271;28;20049;-68
2023/12/16 05:42:50;;;;;;;23.27;4.43;;;5.90;99.90;;;;;;5043596;28;20044;-68
2023/12/16 05:45:15;;;;;;;22.15;3.40;;;5.90;99.90;;;;;;5046193;28;20070;-67
2023/12/16 05:47:41;;;;;;;19.20;3.90;;;5.80;99.90;;;;;;5053766;28;20822;-68
2023/12/16 05:50:08;;;;;;;22.92;3.80;;;5.90;99.90;;;;;;5041843;28;20801;-68
2023/12/16 05:52:35;;;;;;;26.38;4.35;;;6.00;99.90;;;;;;5060108;28;20049;-68
2023/12/16 05:55:01;;;;;;;24.35;4.35;;;6.00;99.90;;;;;;5050843;28;20096;-68
2023/12/16 05:57:26;;;;;;;22.05;4.40;;;6.00;99.90;;;;;;5048144;28;20544;-68
2023/12/16 05:59:52;;;;;;;31.95;6.30;;;6.00;99.90;;;;;;5041781;28;20900;-69
2023/12/16 06:02:18;;;;;;;25.95;4.82;;;6.70;99.90;;;;;;5044714;28;20063;-68
2023/12/16 06:04:45;;;;;;;22.00;4.45;;;6.10;99.90;;;;;;5066086;28;20049;-68
2023/12/16 06:07:10;;;;;;;22.70;4.82;;;6.10;99.90;;;;;;5055790;28;20056;-68
2023/12/16 06:09:36;;;;;;;23.45;4.43;;;6.20;99.90;;;;;;5037583;28;20045;-68
2023/12/16 06:12:02;;;;;;;36.22;6.35;;;6.20;99.90;;;;;;5043876;28;20068;-68
2023/12/16 06:14:28;;;;;;;19.58;4.47;;;6.20;99.90;;;;;;5045769;28;20048;-68
2023/12/16 06:16:54;;;;;;;26.00;5.15;;;6.20;99.90;;;;;;5039899;28;20037;-68
2023/12/16 06:19:19;;;;;;;24.88;4.63;;;6.30;99.90;;;;;;5041205;28;20045;-68
2023/12/16 06:21:45;;;;;;;29.45;5.10;;;6.30;99.90;;;;;;5040048;28;20080;-68
2023/12/16 06:24:11;;;;;;;25.08;4.93;;;6.30;99.90;;;;;;5042218;28;20118;-68
2023/12/16 06:26:37;;;;;;;25.65;4.63;;;6.30;99.90;;;;;;5052301;28;20040;-68
2023/12/16 06:29:03;;;;;;;30.23;5.50;;;6.30;99.90;;;;;;5044419;28;20057;-69
2023/12/16 07:20:23;;;;;;;44.63;8.82;;;6.80;99.90;;;;;;5062347;27;2245116;-89
2023/12/16 07:22:49;;;;;;;35.53;8.18;;;6.20;99.90;;;;;;5108153;27;20059;-90
2023/12/16 07:25:21;;;;;;;36.00;7.55;;;6.80;99.90;;;;;;5109316;27;20078;-90
2023/12/16 07:27:54;;;;;;;33.47;7.32;;;6.60;99.90;;;;;;5097141;27;20120;-89
2023/12/16 07:30:29;;;;;;;38.83;7.65;;;6.70;99.90;;;;;;5106233;27;20038;-90
2023/12/16 07:32:58;;;;;;;30.88;6.97;;;6.70;99.90;;;;;;5108155;27;20054;-89
2023/12/16 07:35:35;;;;;;;35.92;7.88;;;6.70;99.90;;;;;;5125132;27;20063;-89
2023/12/16 07:38:09;;;;;;;40.67;8.30;;;6.70;99.90;;;;;;5114969;27;20039;-89
2023/12/16 07:40:36;;;;;;;32.00;7.57;;;6.40;99.90;;;;;;5108576;27;20107;-90
2023/12/16 07:43:05;;;;;;;40.45;7.28;;;6.00;99.90;;;;;;5106937;27;20074;-90
2023/12/16 07:45:34;;;;;;;27.88;8.00;;;6.70;99.90;;;;;;5104855;27;20036;-89
2023/12/16 07:48:10;;;;;;;48.65;8.70;;;6.70;99.90;;;;;;5100854;27;20043;-88
2023/12/16 07:50:36;;;;;;;32.33;6.60;;;7.30;99.90;;;;;;5101085;27;20046;-91
2023/12/16 07:53:03;;;;;;;45.50;8.85;;;6.70;99.90;;;;;;5105042;27;20038;-90
2023/12/16 07:55:39;;;;;;;32.38;7.43;;;6.70;99.90;;;;;;5117863;27;20043;-89
2023/12/16 07:58:07;;;;;;;37.15;7.60;;;5.80;99.90;;;;;;5104408;27;20107;-89
2023/12/16 08:00:36;;;;;;;37.38;7.88;;;6.80;99.90;;;;;;5104029;27;20234;-90
2023/12/16 08:03:05;;;;;;;32.58;8.05;;;6.80;99.90;;;;;;5103412;27;20586;-88
2023/12/16 08:05:32;;;;;;;25.17;6.88;;;6.80;99.90;;;;;;5096696;27;20278;-89
2023/12/16 08:08:01;;;;;;;36.50;7.57;;;6.90;99.90;;;;;;5103358;27;20047;-89
2023/12/16 08:11:25;;;;;;;37.83;7.80;;;7.80;99.90;;;;;;5111065;27;20156;-66
2023/12/16 08:13:54;;;;;;;39.45;8.25;;;6.90;99.90;;;;;;5106126;27;20574;-66
2023/12/16 08:16:19;;;;;;;32.50;7.75;;;6.90;99.90;;;;;;5110917;27;20040;-66
2023/12/16 08:18:45;;;;;;;40.35;7.70;;;7.00;99.90;;;;;;5086743;28;20052;-64
2023/12/16 08:21:11;;;;;;;33.95;7.88;;;7.00;99.90;;;;;;5103148;27;20040;-65
2023/12/16 08:23:37;;;;;;;39.85;7.75;;;7.00;99.90;;;;;;5101841;27;20085;-65
2023/12/16 08:26:08;;;;;;;33.25;6.85;;;7.00;99.90;;;;;;5107609;27;20075;-65
2023/12/16 08:28:37;;;;;;;42.65;6.72;;;7.10;99.90;;;;;;5104745;27;20544;-65
2023/12/16 08:31:03;;;;;;;38.90;7.65;;;7.10;99.90;;;;;;5097670;27;20048;-66
2023/12/16 08:33:29;;;;;;;35.28;7.53;;;7.20;99.90;;;;;;5101484;27;20046;-65
2023/12/16 08:35:56;;;;;;;37.78;8.95;;;7.20;99.90;;;;;;5103586;27;20500;-64
2023/12/16 08:38:24;;;;;;;36.22;7.43;;;7.20;99.90;;;;;;5132198;27;20055;-65
2023/12/16 08:40:55;;;;;;;36.17;7.32;;;7.20;99.90;;;;;;5112036;27;20487;-65
2023/12/16 08:43:21;;;;;;;39.85;7.70;;;7.30;99.90;;;;;;5139562;27;20495;-65
2023/12/16 08:45:47;;;;;;;53.88;8.68;;;7.30;99.90;;;;;;5096283;27;20059;-65
2023/12/16 08:48:12;;;;;;;43.50;8.13;;;7.40;99.90;;;;;;5095779;27;20039;-65
2023/12/16 08:50:38;;;;;;;43.63;8.07;;;7.40;99.90;;;;;;5102113;27;20059;-65
2023/12/16 08:53:09;;;;;;;44.78;7.93;;;7.40;99.90;;;;;;5142596;27;20048;-65
2023/12/16 08:55:34;;;;;;;47.95;8.50;;;7.40;99.90;;;;;;5096734;27;20775;-64
2023/12/16 08:58:00;;;;;;;48.15;8.02;;;7.40;99.90;;;;;;5102410;27;20073;-66
2023/12/16 09:00:26;;;;;;;39.75;7.50;;;7.50;99.90;;;;;;5118528;27;20075;-66
2023/12/16 09:02:52;;;;;;;39.08;7.85;;;7.50;99.90;;;;;;5099275;27;20048;-65
2023/12/16 09:05:19;;;;;;;47.80;8.00;;;7.50;99.90;;;;;;5126573;27;20048;-66
2023/12/16 09:07:45;;;;;;;45.13;7.80;;;7.50;99.90;;;;;;5097028;27;20140;-65
2023/12/16 09:10:12;;;;;;;57.40;8.35;;;7.50;99.90;;;;;;5096343;27;20157;-65
2023/12/16 09:12:38;;;;;;;53.55;8.25;;;7.50;99.90;;;;;;5104364;28;20044;-64
2023/12/16 09:15:05;;;;;;;45.17;8.38;;;7.60;99.90;;;;;;5127650;27;20100;-64
2023/12/16 09:17:31;;;;;;;36.20;7.03;;;7.50;99.90;;;;;;5088198;27;20039;-66
2023/12/16 09:19:56;;;;;;;41.28;7.80;;;7.60;99.90;;;;;;5134975;27;20047;-65
2023/12/16 09:22:23;;;;;;;51.78;7.60;;;7.60;99.90;;;;;;5086654;27;20032;-66
2023/12/16 09:24:49;;;;;;;41.38;6.82;;;7.80;99.90;;;;;;5088346;27;21520;-65
2023/12/16 09:27:15;;;;;;;49.40;7.05;;;7.60;99.90;;;;;;5089477;28;20576;-67
2023/12/16 09:29:40;;;;;;;38.70;7.28;;;7.60;99.90;;;;;;5086583;28;20590;-67
2023/12/16 09:32:07;;;;;;;35.65;6.68;;;7.60;99.90;;;;;;5084092;28;20069;-68
2023/12/16 09:34:32;;;;;;;48.70;8.82;;;7.60;99.90;;;;;;5086601;28;20093;-67
2023/12/16 09:36:58;;;;;;;36.97;7.25;;;7.60;99.90;;;;;;5087107;28;20502;-67
2023/12/16 09:39:24;;;;;;;56.63;8.85;;;7.60;99.90;;;;;;5084309;28;20112;-68
2023/12/16 09:41:55;;;;;;;36.40;7.55;;;7.70;99.90;;;;;;5089646;28;20043;-68
2023/12/16 09:44:24;;;;;;;33.63;7.13;;;7.70;99.90;;;;;;5087266;28;20054;-68
2023/12/16 09:46:53;;;;;;;45.83;7.75;;;7.60;99.90;;;;;;5086395;28;20075;-69
2023/12/16 09:49:23;;;;;;;44.30;7.55;;;7.70;99.90;;;;;;5067545;28;20979;-68
2023/12/16 09:51:49;;;;;;;40.55;7.55;;;7.70;99.90;;;;;;5086453;28;20047;-68
2023/12/16 09:54:16;;;;;;;37.97;8.10;;;7.70;99.90;;;;;;5087276;28;20124;-68
2023/12/16 09:56:44;;;;;;;44.63;9.30;;;7.70;99.90;;;;;;5088255;28;20052;-67
2023/12/16 09:59:12;;;;;;;45.25;7.90;;;7.70;99.90;;;;;;5089302;28;20108;-67
2023/12/16 10:01:37;;;;;;;33.65;7.90;;;7.70;99.90;;;;;;5115773;27;20096;-68
2023/12/16 10:04:06;;;;;;;34.88;7.93;;;7.70;99.90;;;;;;5086059;28;20035;-68
2023/12/16 10:06:32;;;;;;;40.78;8.00;;;7.70;99.90;;;;;;5070434;28;20479;-69
2023/12/16 10:08:58;;;;;;;41.60;7.70;;;7.70;99.90;;;;;;5117390;27;21100;-67
2023/12/16 10:11:24;;;;;;;43.00;8.07;;;7.70;99.90;;;;;;5089482;27;20062;-68
2023/12/16 10:13:59;;;;;;;32.70;7.55;;;7.70;99.90;;;;;;5085913;28;20043;-68
2023/12/16 10:16:26;;;;;;;41.25;9.10;;;7.70;99.90;;;;;;5084537;28;20043;-67
2023/12/16 10:18:53;;;;;;;30.88;7.60;;;7.70;99.90;;;;;;5098177;27;20083;-67
2023/12/16 10:21:32;;;;;;;31.85;8.02;;;7.70;99.90;;;;;;5081540;28;20119;-67
2023/12/16 10:24:02;;;;;;;31.83;7.65;;;7.70;99.90;;;;;;5111586;27;20090;-67
2023/12/16 10:26:33;;;;;;;36.33;8.15;;;7.70;99.90;;;;;;5096284;28;20090;-67
2023/12/16 10:29:01;;;;;;;40.10;8.18;;;7.70;99.90;;;;;;5083557;28;20411;-67
2023/12/16 10:31:28;;;;;;;30.25;8.90;;;7.80;99.90;;;;;;5093387;28;20055;-67
2023/12/16 10:33:54;;;;;;;29.65;8.82;;;7.80;99.90;;;;;;5095612;28;20553;-67
2023/12/16 10:36:19;;;;;;;50.05;9.98;;;7.80;99.90;;;;;;5088676;28;20044;-67
2023/12/16 10:38:48;;;;;;;42.92;10.45;;;7.80;99.90;;;;;;5096691;28;20529;-67
2023/12/16 10:41:14;;;;;;;44.13;10.52;;;7.90;99.90;;;;;;5087214;28;20043;-69
2023/12/16 10:43:40;;;;;;;41.33;9.57;;;7.90;99.90;;;;;;5093639;28;20119;-68
2023/12/16 10:46:06;;;;;;;35.92;9.55;;;7.90;99.90;;;;;;5077645;28;20052;-67
2023/12/16 10:48:34;;;;;;;36.08;10.90;;;8.00;99.90;;;;;;5094640;28;20403;-67
2023/12/16 10:51:04;;;;;;;32.63;10.23;;;8.00;99.90;;;;;;5091182;28;20521;-68
2023/12/16 10:53:44;;;;;;;29.95;9.38;;;8.00;99.90;;;;;;5089004;28;20050;-71
2023/12/16 10:56:30;;;;;;;38.72;9.00;;;8.00;99.90;;;;;;5076620;28;20483;-69
2023/12/16 10:59:33;;;;;;;31.13;8.82;;;8.00;99.90;;;;;;5104185;27;20061;-68
2023/12/16 11:02:03;;;;;;;33.08;9.40;;;8.00;99.90;;;;;;5064780;28;20132;-69
2023/12/16 11:04:34;;;;;;;28.40;9.52;;;8.00;99.90;;;;;;5086833;28;20055;-69
2023/12/16 11:07:09;;;;;;;22.40;8.13;;;8.10;99.90;;;;;;5090544;28;20039;-69
2023/12/16 11:09:36;;;;;;;19.88;8.18;;;8.00;99.90;;;;;;5124868;27;20066;-68
2023/12/16 11:12:03;;;;;;;27.42;7.45;;;8.10;99.90;;;;;;5095196;28;21007;-69
2023/12/16 11:14:31;;;;;;;20.05;7.88;;;8.10;99.90;;;;;;5122098;27;20036;-74
2023/12/16 11:17:18;;;;;;;19.10;8.00;;;8.10;99.90;;;;;;5118570;27;20043;-68
2023/12/16 11:19:56;;;;;;;22.10;8.00;;;8.10;99.90;;;;;;5127068;27;20044;-69
2023/12/16 11:22:24;;;;;;;21.40;7.88;;;8.10;99.90;;;;;;5096498;28;20043;-69
2023/12/16 11:24:52;;;;;;;19.02;7.80;;;8.10;99.90;;;;;;5097411;28;20048;-69
2023/12/16 11:27:20;;;;;;;19.00;7.35;;;8.20;99.90;;;;;;5092477;28;20055;-68
2023/12/16 11:29:47;;;;;;;20.30;7.88;;;8.20;99.90;;;;;;5094135;28;20084;-69
2023/12/16 11:32:12;;;;;;;27.17;7.97;;;8.20;99.90;;;;;;5081224;28;20052;-73
2023/12/16 11:34:43;;;;;;;15.82;7.00;;;8.20;99.90;;;;;;5078728;28;20032;-69
2023/12/16 11:37:12;;;;;;;18.95;6.40;;;8.20;99.90;;;;;;5093882;28;20047;-68
2023/12/16 11:39:44;;;;;;;19.48;6.35;;;8.30;99.90;;;;;;5096980;28;20036;-68
2023/12/16 11:42:13;;;;;;;19.88;6.93;;;8.30;99.90;;;;;;5092007;28;20051;-67
2023/12/16 11:44:55;;;;;;;16.95;5.97;;;8.30;99.90;;;;;;5092241;28;20130;-67
2023/12/16 11:47:25;;;;;;;17.85;6.00;;;8.30;99.90;;;;;;5096356;27;20047;-67
2023/12/16 11:49:55;;;;;;;16.48;5.85;;;8.30;99.90;;;;;;5093601;28;20521;-71
2023/12/16 11:52:23;;;;;;;15.63;5.88;;;8.30;99.90;;;;;;5097046;27;20561;-68
2023/12/16 11:54:56;;;;;;;13.20;6.13;;;8.30;99.90;;;;;;5095261;28;20048;-68
2023/12/16 11:57:24;;;;;;;15.13;6.15;;;8.30;99.90;;;;;;5094024;28;20112;-67
2023/12/16 11:59:51;;;;;;;17.27;6.25;;;8.30;99.90;;;;;;5093418;28;20453;-68
2023/12/16 12:02:18;;;;;;;19.67;7.25;;;8.40;99.90;;;;;;5122606;27;20154;-68
2023/12/16 12:04:44;;;;;;;15.55;6.82;;;8.40;99.90;;;;;;5094211;28;20043;-68
2023/12/16 12:07:10;;;;;;;20.92;7.03;;;8.40;99.90;;;;;;5079782;28;20044;-68
2023/12/16 12:09:41;;;;;;;20.05;6.60;;;8.40;99.90;;;;;;5095288;28;20173;-68
2023/12/16 12:12:06;;;;;;;20.15;6.45;;;8.40;99.90;;;;;;5118336;27;20063;-68
2023/12/16 12:14:32;;;;;;;19.33;6.05;;;8.40;99.90;;;;;;5094985;28;20147;-69
2023/12/16 12:16:59;;;;;;;17.20;6.32;;;8.40;99.90;;;;;;5097392;28;20053;-68
2023/12/16 12:19:24;;;;;;;13.75;5.57;;;8.40;99.90;;;;;;5077333;28;20051;-66
2023/12/16 12:21:53;;;;;;;14.27;6.60;;;8.40;99.90;;;;;;5094622;28;20412;-68
2023/12/16 12:24:19;;;;;;;17.52;6.22;;;8.40;99.90;;;;;;5092000;28;20438;-66
2023/12/16 12:26:45;;;;;;;15.18;6.43;;;8.50;99.90;;;;;;5095831;28;20780;-66
2023/12/16 12:29:11;;;;;;;16.63;6.70;;;8.40;99.90;;;;;;5093019;28;20040;-70
2023/12/16 12:31:48;;;;;;;15.70;7.60;;;8.40;99.90;;;;;;5068966;28;20047;-66
2023/12/16 12:34:24;;;;;;;17.35;7.47;;;8.40;99.90;;;;;;5093535;28;20043;-66
2023/12/16 12:36:56;;;;;;;20.05;7.20;;;8.40;99.90;;;;;;5093589;28;20088;-67
2023/12/16 12:39:22;;;;;;;16.40;6.70;;;8.50;99.90;;;;;;5089171;28;20459;-66
2023/12/16 12:42:04;;;;;;;17.58;7.55;;;8.50;99.90;;;;;;5092394;28;20052;-66
2023/12/16 12:44:30;;;;;;;19.05;7.50;;;8.50;99.90;;;;;;5095529;28;20050;-67
2023/12/16 12:46:56;;;;;;;19.90;8.05;;;8.50;99.90;;;;;;5089123;28;20035;-67
2023/12/16 12:49:33;;;;;;;20.73;7.88;;;8.50;99.90;;;;;;5091486;28;20044;-65
2023/12/16 12:51:59;;;;;;;24.85;8.40;;;8.50;99.90;;;;;;5094298;28;20122;-66
2023/12/16 12:54:25;;;;;;;22.65;8.68;;;8.60;99.90;;;;;;5095213;28;20234;-67
2023/12/16 12:56:51;;;;;;;20.02;8.35;;;8.60;99.90;;;;;;5088816;28;20048;-66
2023/12/16 12:59:18;;;;;;;19.25;7.95;;;8.80;99.90;;;;;;5091789;28;20031;-66
2023/12/16 13:01:45;;;;;;;24.25;8.00;;;8.60;99.90;;;;;;5092133;27;20039;-66
2023/12/16 13:04:12;;;;;;;23.08;8.30;;;8.50;99.90;;;;;;5089678;28;20040;-67
2023/12/16 13:06:38;;;;;;;21.50;8.00;;;8.60;99.90;;;;;;5078755;28;20044;-67
2023/12/16 13:09:08;;;;;;;22.35;8.55;;;8.60;99.90;;;;;;5086744;28;20407;-65
2023/12/16 13:11:35;;;;;;;21.30;8.73;;;8.60;99.90;;;;;;5089894;27;20043;-64
2023/12/16 13:14:00;;;;;;;25.88;8.93;;;8.60;99.90;;;;;;5094133;28;20083;-66
2023/12/16 13:16:27;;;;;;;24.35;8.07;;;8.60;99.90;;;;;;5120686;27;20146;-66
2023/12/16 13:18:52;;;;;;;25.17;8.43;;;8.60;99.90;;;;;;5088370;28;20059;-66
2023/12/16 13:21:21;;;;;;;18.67;8.15;;;8.60;99.90;;;;;;5092084;27;20052;-66
2023/12/16 13:23:48;;;;;;;21.65;7.45;;;8.60;99.90;;;;;;5089397;28;20040;-66
2023/12/16 13:26:14;;;;;;;20.23;7.70;;;8.60;99.90;;;;;;5088985;28;20039;-65
2023/12/16 13:28:41;;;;;;;17.25;7.07;;;8.60;99.90;;;;;;5088744;28;20042;-65
2023/12/16 13:31:07;;;;;;;20.92;7.18;;;8.60;99.90;;;;;;5090898;28;20076;-66
2023/12/16 13:33:34;;;;;;;17.80;7.38;;;8.60;99.90;;;;;;5092736;28;20603;-67
2023/12/16 13:36:00;;;;;;;17.00;6.47;;;8.60;99.90;;;;;;5091959;28;20177;-65
2023/12/16 13:38:25;;;;;;;21.75;8.00;;;8.60;99.90;;;;;;5071265;28;20040;-66